| Date | Time | Temp. (oF) | Dew Point (oF) | Rel. Hum. (%) | Press. (in.) | Wind Dir. | Wind Speed (mph) | Hourly Rainfall (in.) |
|
|---|---|---|---|---|---|---|---|---|---|
| 1 | 11/06 | 00:00 | 56 | 54 | 94 | 29.93 | NNW | 10 | 0.00 |
| 2 | 11/05 | 23:00 | 57 | 54 | 90 | 29.95 | NNE | 5 | 0.01 |
| 3 | 11/05 | 22:00 | 60 | 53 | 80 | 29.97 | NNE | 5 | 0.01 |
| 4 | 11/05 | 21:00 | 61 | 52 | 75 | 29.98 | NE | 7 | 0.00 |
| 5 | 11/05 | 20:00 | 62 | 53 | 75 | 30.00 | NNE | 10 | 0.00 |
| 6 | 11/05 | 19:00 | 61 | 54 | 79 | 30.01 | NNE | 8 | 0.00 |
| 7 | 11/05 | 18:00 | 62 | 53 | 75 | 30.01 | N | 7 | 0.00 |
| 8 | 11/05 | 17:00 | 63 | 54 | 75 | 30.02 | NNE | 12 | 0.00 |
| 9 | 11/05 | 16:00 | 63 | 55 | 76 | 30.03 | NNE | 7 | 0.00 |
| 10 | 11/05 | 15:00 | 64 | 56 | 76 | 30.03 | N | 11 | 0.00 |
| 11 | 11/05 | 14:00 | 65 | 56 | 74 | 30.04 | NNW | 6 | 0.00 |
| 12 | 11/05 | 13:00 | 64 | 56 | 78 | 30.06 | NE | 5 | 0.00 |
| 13 | 11/05 | 12:00 | 62 | 56 | 82 | 30.10 | NE | 4 | 0.00 |
| 14 | 11/05 | 11:00 | 60 | 56 | 87 | 30.14 | NNE | 8 | 0.00 |
| 15 | 11/05 | 10:00 | 58 | 55 | 92 | 30.17 | NNE | 4 | 0.00 |
| 16 | 11/05 | 09:00 | 57 | 55 | 95 | 30.17 | ENE | 2 | 0.00 |
| 17 | miss | miss | miss | miss | miss | miss | miss | miss | |
| 18 | 11/05 | 09:06 | 55 | 54 | 98 | 30.18 | N | 3 | 0.00 |
| 19 | miss | miss | miss | miss | miss | miss | miss | miss | |
| 20 | 11/05 | 09:04 | 55 | 54 | 98 | 30.18 | NNE | 6 | 0.00 |
| 21 | miss | miss | miss | miss | miss | miss | miss | miss | |
| 22 | 11/05 | 09:02 | 55 | 54 | 98 | 30.18 | N | 4 | 0.00 |
| 23 | miss | miss | miss | miss | miss | miss | miss | miss | |
| 24 | 11/05 | 09:00 | 55 | 54 | 98 | 30.18 | NE | 1 | 0.00 |
| 25 | miss | miss | miss | miss | miss | miss | miss | miss | |
| 26 | 11/05 | 08:59 | 55 | 54 | 98 | 30.18 | NE | 3 | 0.00 |
| 27 | miss | miss | miss | miss | miss | miss | miss | miss | |
| 28 | 11/05 | 08:59 | 55 | 54 | 98 | 30.18 | NE | 3 | 0.00 |
| 29 | miss | miss | miss | miss | miss | miss | miss | miss | |
| 30 | 11/05 | 08:59 | 55 | 54 | 98 | 30.18 | NE | 3 | 0.00 |
| 31 | miss | miss | miss | miss | miss | miss | miss | miss | |
| 32 | 11/05 | 08:59 | 55 | 54 | 98 | 30.18 | NE | 3 | 0.00 |
| 33 | miss | miss | miss | miss | miss | miss | miss | miss | |
| 34 | 11/05 | 08:59 | 55 | 54 | 98 | 30.18 | NE | 3 | 0.00 |
| 35 | miss | miss | miss | miss | miss | miss | miss | miss | |
| 36 | 11/05 | 08:59 | 55 | 54 | 98 | 30.18 | NE | 3 | 0.00 |
| 37 | miss | miss | miss | miss | miss | miss | miss | miss | |
| 38 | 11/05 | 08:59 | 55 | 54 | 98 | 30.18 | NE | 3 | 0.00 |
| 39 | miss | miss | miss | miss | miss | miss | miss | miss | |
| 40 | 11/05 | 08:59 | 55 | 54 | 98 | 30.18 | NE | 3 | 0.00 |
| 41 | 11/05 | 08:00 | 53 | 53 | 100 | 30.18 | NE | 2 | 0.00 |
| 42 | 11/05 | 07:00 | 54 | 54 | 100 | 30.18 | NNW | 2 | 0.00 |
| 43 | 11/05 | 06:00 | 54 | 54 | 100 | 30.19 | NNE | 3 | 0.00 |
| 44 | 11/05 | 05:00 | 54 | 54 | 100 | 30.19 | NNE | 4 | 0.00 |
| 45 | 11/05 | 04:00 | 54 | 54 | 100 | 30.20 | ENE | 6 | 0.00 |
| 46 | 11/05 | 03:00 | 53 | 53 | 100 | 30.22 | WSW | 0 | 0.00 |
| 47 | 11/05 | 02:00 | 54 | 54 | 100 | 30.21 | NNE | 0 | 0.00 |
| 48 | 11/05 | 01:00 | 54 | 54 | 100 | 30.23 | ENE | 0 | 0.00 |
| 49 | 11/05 | 00:00 | 54 | 54 | 100 | 30.26 | N | 0 | -0.02 |
| 50 | 11/04 | 23:00 | 55 | 54 | 98 | 30.27 | N | 0 | 0.00 |
| 51 | 11/04 | 22:00 | 56 | 54 | 95 | 30.29 | NE | 0 | 0.00 |
| 52 | 11/04 | 21:00 | 56 | 53 | 92 | 30.29 | ENE | 0 | 0.00 |
| 53 | 11/04 | 20:00 | 57 | 54 | 92 | 30.29 | ENE | 2 | 0.00 |
| 54 | 11/04 | 19:00 | 58 | 54 | 88 | 30.29 | NNE | 1 | 0.00 |
| 55 | 11/04 | 18:00 | 59 | 53 | 83 | 30.29 | ENE | 0 | 0.00 |
| 56 | 11/04 | 17:00 | 61 | 54 | 80 | 30.28 | ENE | 3 | 0.00 |
| 57 | 11/04 | 16:00 | 61 | 54 | 79 | 30.28 | NE | 3 | 0.00 |
| 58 | 11/04 | 15:00 | 60 | 53 | 80 | 30.29 | NNE | 3 | 0.00 |
| 59 | 11/04 | 14:00 | 61 | 54 | 79 | 30.31 | NNE | 4 | 0.00 |
| 60 | 11/04 | 13:00 | 58 | 53 | 84 | 30.33 | NE | 2 | 0.00 |
| 61 | 11/04 | 12:00 | 53 | 51 | 93 | 30.37 | S | 0 | 0.00 |
| 62 | 11/04 | 11:00 | 49 | 48 | 99 | 30.37 | S | 0 | 0.00 |
| 63 | 11/04 | 10:00 | 47 | 46 | 100 | 30.38 | NNE | 2 | 0.00 |
| 64 | 11/04 | 09:00 | 45 | 45 | 100 | 30.38 | S | 0 | 0.00 |
| 65 | 11/04 | 08:00 | 44 | 44 | 100 | 30.38 | SW | 0 | 0.00 |
| 66 | 11/04 | 07:00 | 44 | 44 | 100 | 30.36 | S | 0 | 0.00 |
| 67 | 11/04 | 06:00 | 45 | 45 | 100 | 30.38 | SE | 0 | 0.00 |
| 68 | 11/04 | 05:00 | 46 | 45 | 100 | 30.37 | SE | 0 | 0.00 |
| 69 | 11/04 | 04:00 | 44 | 44 | 100 | 30.39 | SE | 0 | 0.00 |
| 70 | 11/04 | 03:00 | 43 | 42 | 100 | 30.39 | SE | 0 | 0.00 |
| 71 | 11/04 | 02:00 | 44 | 44 | 100 | 30.39 | SE | 0 | 0.00 |
| 72 | 11/04 | 01:00 | 45 | 45 | 100 | 30.41 | SE | 0 | 0.00 |